Time;durP1;ratioP1;P1;durP2;ratioP2;P2;SDS_P1;SDS_P2;PMS_P1;PMS_P2;Temp;Humidity;BMP_temperature;BMP_pressure;BME280_temperature;BME280_humidity;BME280_pressure;Samples;Min_cycle;Max_cycle;Signal;HPM_P1;HPM_P2
2022/03/30 00:02:15;;;;;;;45.35;25.85;;;;;;;5.49;78.22;99279.88;2777023;82;21041;-82
2022/03/30 00:06:16;;;;;;;45.52;26.80;;;;;;;5.48;77.57;99284.79;2813135;82;21035;-80
2022/03/30 00:10:18;;;;;;;42.00;27.70;;;;;;;5.46;77.41;99280.11;2833554;82;21036;-82
2022/03/30 00:14:20;;;;;;;46.98;29.98;;;;;;;5.36;76.40;99273.88;2772537;83;21037;-82
2022/03/30 00:18:22;;;;;;;44.83;24.23;;;;;;;5.22;76.96;99274.44;2785958;82;21024;-82
2022/03/30 00:22:23;;;;;;;45.75;26.62;;;;;;;5.09;78.42;99285.55;2817563;82;21114;-83
2022/03/30 00:26:25;;;;;;;39.18;27.52;;;;;;;4.96;77.86;99278.57;2829234;82;21086;-82
2022/03/30 00:30:27;;;;;;;47.58;28.73;;;;;;;4.95;79.46;99272.94;2841872;81;21086;-82
2022/03/30 00:34:28;;;;;;;47.90;30.92;;;;;;;4.88;78.44;99274.83;2850926;82;21099;-82
2022/03/30 00:38:30;;;;;;;45.15;29.12;;;;;;;4.96;79.39;99282.98;2823553;82;21039;-83
2022/03/30 00:42:32;;;;;;;43.50;27.55;;;;;;;5.05;79.64;99276.19;2736033;84;21581;-82
2022/03/30 00:46:34;;;;;;;45.48;28.67;;;;;;;5.06;78.12;99277.87;2777726;83;21547;-82
2022/03/30 00:50:36;;;;;;;45.65;29.18;;;;;;;5.06;78.52;99274.77;2858230;81;21015;-83
2022/03/30 00:54:38;;;;;;;39.98;27.15;;;;;;;5.12;79.10;99266.88;2842614;82;21043;-83
2022/03/30 00:58:40;;;;;;;57.67;31.93;;;;;;;5.17;80.05;99274.42;2739540;84;21183;-83
2022/03/30 01:02:44;;;;;;;51.90;32.35;;;;;;;5.24;79.81;99268.57;2754045;82;21067;-82
2022/03/30 01:06:47;;;;;;;40.88;28.87;;;;;;;5.32;79.81;99259.25;2767115;83;21384;-83
2022/03/30 01:10:48;;;;;;;44.93;30.37;;;;;;;5.34;79.69;99263.44;2794692;82;21047;-82
2022/03/30 01:14:50;;;;;;;46.00;26.70;;;;;;;5.39;79.14;99257.32;2749029;83;21541;-82
2022/03/30 01:19:07;;;;;;;46.02;28.83;;;;;;;5.35;77.68;99254.56;2784401;82;21608;-83
2022/03/30 01:23:09;;;;;;;38.40;27.77;;;;;;;5.22;78.35;99250.71;2777600;83;21167;-82
2022/03/30 01:27:10;;;;;;;45.85;29.77;;;;;;;5.19;77.73;99246.14;2791312;83;21970;-83
2022/03/30 01:35:33;;;;;;;50.28;31.25;;;;;;;4.97;77.99;99246.45;2768173;82;21048;-83
2022/03/30 01:39:35;;;;;;;49.58;29.65;;;;;;;4.83;78.10;99241.76;2750107;83;21182;-83
2022/03/30 01:43:36;;;;;;;54.30;29.42;;;;;;;4.83;78.26;99245.71;2778188;83;21140;-82
2022/03/30 01:47:41;;;;;;;47.25;30.90;;;;;;;4.76;78.66;99241.01;2779700;83;21140;-82
2022/03/30 01:51:42;;;;;;;39.25;26.80;;;;;;;4.69;78.50;99234.03;2772143;83;21048;-83
2022/03/30 01:55:44;;;;;;;49.00;31.12;;;;;;;4.62;78.44;99229.69;2768755;84;21013;-83
2022/03/30 01:59:46;;;;;;;56.30;33.98;;;;;;;4.57;78.66;99223.94;2837785;82;20995;-82
2022/03/30 02:03:47;;;;;;;43.92;31.30;;;;;;;4.57;79.55;99221.30;2838017;82;21031;-83
2022/03/30 02:07:49;;;;;;;52.10;34.15;;;;;;;4.54;79.39;99208.36;2826570;82;21012;-82
2022/03/30 02:11:51;;;;;;;54.18;31.90;;;;;;;4.56;79.82;99211.72;2817376;82;21551;-82
2022/03/30 02:15:52;;;;;;;58.80;34.83;;;;;;;4.46;79.70;99210.24;2828451;82;21047;-83
2022/03/30 02:19:57;;;;;;;53.28;33.58;;;;;;;4.42;81.29;99201.72;2823234;82;21038;-82
2022/03/30 02:23:58;;;;;;;69.10;49.13;;;;;;;4.47;80.23;99203.16;2817662;81;21031;-82
2022/03/30 02:28:00;;;;;;;49.08;31.27;;;;;;;4.49;80.35;99206.52;2827751;82;20996;-82
2022/03/30 02:32:03;;;;;;;38.42;29.65;;;;;;;4.25;79.54;99200.80;2839528;82;21028;-82
2022/03/30 02:36:05;;;;;;;44.60;30.45;;;;;;;3.93;78.67;99197.38;2827042;82;21023;-82
2022/03/30 02:40:07;;;;;;;51.95;30.55;;;;;;;3.70;79.17;99191.97;2858621;81;21036;-79
2022/03/30 02:44:09;;;;;;;57.25;33.28;;;;;;;3.63;79.53;99193.36;2872135;80;21032;-82
2022/03/30 02:48:19;;;;;;;42.27;31.30;;;;;;;3.70;79.33;99194.59;2881457;78;21075;-83
2022/03/30 02:52:20;;;;;;;54.60;33.42;;;;;;;3.79;79.38;99193.96;2884963;80;21015;-83
2022/03/30 02:56:22;;;;;;;48.73;30.17;;;;;;;3.86;79.01;99197.83;2860700;79;21016;-82
2022/03/30 03:00:24;;;;;;;38.70;26.62;;;;;;;3.85;77.22;99197.46;2844890;81;21649;-83
2022/03/30 03:04:25;;;;;;;43.85;28.15;;;;;;;3.73;76.85;99199.64;2854630;80;21028;-82
2022/03/30 03:08:27;;;;;;;45.58;29.80;;;;;;;3.68;77.03;99200.44;2894559;79;20959;-82
2022/03/30 03:12:28;;;;;;;54.15;29.23;;;;;;;3.68;77.21;99191.23;2884845;79;20984;-82
2022/03/30 03:16:29;;;;;;;41.18;27.73;;;;;;;3.68;77.90;99184.20;2854238;80;21039;-82
2022/03/30 03:20:34;;;;;;;46.00;29.60;;;;;;;3.69;77.43;99182.40;2890797;79;21024;-81
2022/03/30 03:24:35;;;;;;;50.85;31.52;;;;;;;3.70;77.65;99185.39;2868333;80;21036;-81
2022/03/30 03:28:37;;;;;;;49.80;29.50;;;;;;;3.69;77.80;99196.86;2858445;80;21574;-81
2022/03/30 03:32:38;;;;;;;43.65;28.42;;;;;;;3.68;77.22;99186.83;2917510;79;21007;-81
2022/03/30 03:36:40;;;;;;;53.28;31.02;;;;;;;3.65;76.95;99184.42;2920675;80;20960;-79
2022/03/30 03:40:41;;;;;;;46.98;28.87;;;;;;;3.65;76.59;99180.94;2859935;79;21519;-81
2022/03/30 03:44:43;;;;;;;43.40;29.20;;;;;;;3.67;76.56;99186.47;2848873;79;21643;-81
2022/03/30 03:48:45;;;;;;;47.67;28.50;;;;;;;3.63;75.96;99182.34;2857681;79;20988;-80
2022/03/30 03:52:47;;;;;;;48.63;28.45;;;;;;;3.54;76.22;99178.61;2869481;80;21086;-81
2022/03/30 03:56:48;;;;;;;50.20;29.57;;;;;;;3.50;76.64;99181.06;2837794;80;21022;-81
2022/03/30 04:00:50;;;;;;;56.08;31.62;;;;;;;3.45;77.55;99176.61;2882439;80;21028;-80
2022/03/30 04:04:51;;;;;;;54.35;30.97;;;;;;;3.33;77.90;99181.40;2880952;80;21031;-81
2022/03/30 04:08:54;;;;;;;41.75;29.55;;;;;;;3.35;78.15;99176.91;2832111;81;20964;-81
2022/03/30 04:12:55;;;;;;;58.52;32.17;;;;;;;3.39;77.43;99170.48;2895743;80;21542;-83
2022/03/30 04:16:57;;;;;;;61.30;31.85;;;;;;;3.39;77.00;99167.84;2867902;80;21019;-82
2022/03/30 04:20:58;;;;;;;53.33;30.23;;;;;;;3.31;77.07;99168.84;2881317;80;21010;-82
2022/03/30 04:25:00;;;;;;;47.85;30.50;;;;;;;3.20;77.07;99170.90;2872541;80;20999;-83
2022/03/30 04:29:01;;;;;;;42.60;28.75;;;;;;;3.13;77.29;99169.16;2880097;79;21515;-82
2022/03/30 04:33:03;;;;;;;55.33;33.53;;;;;;;3.07;78.17;99167.83;2841635;82;21587;-80
2022/03/30 04:37:04;;;;;;;45.60;26.93;;;;;;;2.92;78.67;99176.25;2837360;82;21021;-81
2022/03/30 04:41:06;;;;;;;53.25;30.23;;;;;;;2.73;79.97;99179.30;2830606;82;21480;-81
2022/03/30 04:45:08;;;;;;;41.60;28.75;;;;;;;2.61;80.81;99178.80;2837898;82;21016;-82
2022/03/30 04:49:10;;;;;;;117.08;37.78;;;;;;;2.61;80.89;99179.65;2789660;83;21005;-82
2022/03/30 04:53:11;;;;;;;47.17;30.02;;;;;;;2.76;80.98;99180.89;2782574;82;21011;-84
2022/03/30 04:57:13;;;;;;;49.30;32.80;;;;;;;2.84;81.85;99175.95;2773710;82;21016;-83
2022/03/30 05:01:14;;;;;;;60.48;33.00;;;;;;;2.99;82.07;99179.31;2784758;83;20985;-83
2022/03/30 05:05:16;;;;;;;47.95;31.12;;;;;;;3.19;81.95;99183.22;2768464;84;21028;-83
2022/03/30 05:09:17;;;;;;;44.45;31.68;;;;;;;3.41;81.70;99184.35;2801942;82;20960;-83
2022/03/30 05:13:19;;;;;;;49.05;30.35;;;;;;;3.60;81.37;99193.58;2760893;83;21030;-83
2022/03/30 05:17:20;;;;;;;61.15;33.30;;;;;;;3.70;80.88;99189.34;2776794;82;21579;-83
2022/03/30 05:21:22;;;;;;;58.10;35.23;;;;;;;3.75;80.85;99191.65;2778268;84;21084;-82
2022/03/30 05:25:23;;;;;;;53.20;31.12;;;;;;;3.70;81.70;99190.65;2752734;83;21056;-83
2022/03/30 05:29:25;;;;;;;48.25;30.45;;;;;;;3.72;81.98;99195.33;2757961;83;21004;-83
2022/03/30 05:33:26;;;;;;;50.40;31.25;;;;;;;3.70;82.19;99194.59;2830640;82;21027;-83
2022/03/30 05:37:29;;;;;;;51.13;31.37;;;;;;;3.73;82.40;99197.50;2857039;80;21587;-83
2022/03/30 05:41:30;;;;;;;77.87;35.58;;;;;;;3.80;82.80;99200.91;2864772;81;21004;-82
2022/03/30 05:45:32;;;;;;;50.48;34.90;;;;;;;3.91;82.48;99203.23;2856212;80;21024;-82
2022/03/30 05:49:37;;;;;;;52.98;35.20;;;;;;;3.97;82.34;99206.75;2830485;82;21535;-83
2022/03/30 05:53:39;;;;;;;53.85;34.55;;;;;;;3.96;83.01;99207.70;2837737;81;21595;-83
2022/03/30 05:57:41;;;;;;;52.27;35.52;;;;;;;3.97;83.95;99201.49;2869292;80;21021;-83
2022/03/30 06:01:42;;;;;;;58.63;33.95;;;;;;;4.00;84.63;99202.09;2867615;80;20983;-83
2022/03/30 06:05:44;;;;;;;66.10;38.83;;;;;;;4.07;85.31;99206.94;2840030;81;21040;-84
2022/03/30 06:09:46;;;;;;;57.88;37.33;;;;;;;4.10;85.44;99202.27;2839370;82;20964;-82
2022/03/30 06:13:47;;;;;;;65.20;39.42;;;;;;;4.34;87.04;99209.35;2826265;82;21047;-83
2022/03/30 06:17:52;;;;;;;62.03;38.58;;;;;;;4.67;87.20;99210.42;2886145;80;21071;-83
2022/03/30 06:21:53;;;;;;;65.05;41.33;;;;;;;5.04;86.74;99205.52;2890968;80;21118;-83
2022/03/30 06:25:55;;;;;;;70.15;43.40;;;;;;;5.28;86.25;99205.41;2879208;80;21563;-83
2022/03/30 06:29:56;;;;;;;75.55;42.27;;;;;;;5.52;85.29;99200.52;2899539;80;21485;-83
2022/03/30 06:33:59;;;;;;;69.87;41.98;;;;;;;5.71;84.16;99200.40;2867717;80;21486;-82
2022/03/30 06:38:02;;;;;;;50.45;39.78;;;;;;;5.81;83.91;99200.02;2845180;81;21086;-83
2022/03/30 06:42:05;;;;;;;70.25;45.12;;;;;;;6.01;85.45;99205.53;2865982;79;21658;-83
2022/03/30 06:46:08;;;;;;;65.75;42.23;;;;;;;6.34;86.68;99207.73;2880664;79;21082;-84
2022/03/30 06:50:11;;;;;;;66.10;40.40;;;;;;;6.73;85.06;99209.84;2874897;79;21598;-83
2022/03/30 06:54:12;;;;;;;65.72;39.80;;;;;;;7.00;84.10;99217.28;2879619;80;21044;-83
2022/03/30 06:58:14;;;;;;;68.02;44.35;;;;;;;7.12;81.22;99210.61;2864957;80;21011;-82
2022/03/30 07:02:15;;;;;;;55.10;39.63;;;;;;;7.39;81.94;99210.53;2911489;80;21051;-83
2022/03/30 07:06:17;;;;;;;62.65;37.55;;;;;;;7.55;79.68;99211.36;2885517;79;21016;-83
2022/03/30 07:10:19;;;;;;;64.42;43.15;;;;;;;7.56;78.68;99212.57;2871898;80;21003;-83
2022/03/30 07:14:20;;;;;;;56.98;36.75;;;;;;;7.59;77.39;99210.16;2881927;80;21055;-83
2022/03/30 07:18:22;;;;;;;40.70;26.52;;;;;;;7.82;78.63;99216.06;2869163;80;21016;-83
2022/03/30 07:22:23;;;;;;;52.48;34.90;;;;;;;7.80;74.34;99207.42;2866319;80;21064;-84
2022/03/30 07:26:25;;;;;;;57.10;31.55;;;;;;;8.04;75.48;99206.23;2883656;80;21081;-84
2022/03/30 07:30:27;;;;;;;48.90;30.57;;;;;;;8.35;74.61;99212.78;2885030;80;21583;-83
2022/03/30 07:34:30;;;;;;;49.53;29.92;;;;;;;8.81;75.22;99202.96;2877323;79;20988;-83
2022/03/30 07:38:31;;;;;;;29.80;17.67;;;;;;;9.21;74.77;99203.75;2834443;82;21552;-84
2022/03/30 07:42:33;;;;;;;27.65;16.17;;;;;;;9.64;66.94;99202.33;2855834;81;21019;-83
2022/03/30 07:46:34;;;;;;;29.65;15.50;;;;;;;10.00;63.88;99202.44;2846551;81;21125;-83
2022/03/30 07:50:37;;;;;;;24.40;13.48;;;;;;;10.25;63.27;99201.36;2871294;80;21096;-82
2022/03/30 07:54:38;;;;;;;28.60;12.35;;;;;;;10.53;61.64;99208.47;2869385;80;21047;-83
2022/03/30 07:58:40;;;;;;;13.05;8.83;;;;;;;10.82;57.89;99198.10;2850925;80;21066;-82
2022/03/30 08:02:42;;;;;;;14.50;6.97;;;;;;;10.88;53.96;99193.48;2831606;82;21006;-83
2022/03/30 08:06:44;;;;;;;20.80;11.63;;;;;;;10.92;52.17;99186.85;2874878;79;21043;-83
2022/03/30 08:10:45;;;;;;;24.90;12.85;;;;;;;11.10;53.68;99189.97;2848910;80;21546;-83
2022/03/30 08:14:48;;;;;;;15.08;10.05;;;;;;;11.08;52.99;99184.80;2867529;79;21032;-83
2022/03/30 08:18:49;;;;;;;14.55;7.42;;;;;;;10.80;50.80;99172.13;2878101;80;21004;-83
2022/03/30 08:22:51;;;;;;;24.50;10.60;;;;;;;10.65;51.31;99171.36;2874340;80;21542;-83
2022/03/30 08:26:52;;;;;;;19.65;14.60;;;;;;;10.48;53.03;99173.54;2875418;80;21525;-83
2022/03/30 08:30:54;;;;;;;28.25;17.90;;;;;;;10.37;56.57;99179.38;2821109;82;21089;-83
2022/03/30 08:34:57;;;;;;;30.60;20.65;;;;;;;10.28;57.44;99181.63;2857621;79;21062;-84
2022/03/30 08:39:00;;;;;;;27.93;18.50;;;;;;;10.25;58.92;99177.44;2895356;80;21038;-83
2022/03/30 08:43:01;;;;;;;26.57;15.03;;;;;;;10.36;59.04;99173.73;2912920;80;21452;-83
2022/03/30 08:47:05;;;;;;;24.57;13.32;;;;;;;10.50;58.57;99180.87;2920862;79;21499;-83
2022/03/30 08:51:08;;;;;;;20.27;10.23;;;;;;;10.57;57.04;99176.59;2893819;80;21078;-83
2022/03/30 08:55:09;;;;;;;22.52;11.85;;;;;;;10.70;55.18;99171.73;2903914;80;21026;-83
2022/03/30 08:59:17;;;;;;;13.85;9.83;;;;;;;10.92;54.58;99174.88;2892631;80;21375;-84
2022/03/30 09:03:20;;;;;;;18.95;8.75;;;;;;;11.15;55.31;99179.69;2793177;81;21043;-83
2022/03/30 09:07:21;;;;;;;20.20;10.23;;;;;;;11.39;54.12;99168.83;2833605;82;21039;-83
2022/03/30 09:11:28;;;;;;;13.75;9.45;;;;;;;11.55;52.56;99172.91;2779839;83;21108;-84
2022/03/30 09:15:29;;;;;;;19.45;9.53;;;;;;;11.66;53.07;99156.32;2772235;83;21016;-82
2022/03/30 09:19:36;;;;;;;16.95;9.65;;;;;;;11.76;51.58;99161.00;2881657;80;21067;-83
2022/03/30 09:23:43;;;;;;;17.95;10.05;;;;;;;11.82;52.63;99156.38;2880358;79;21076;-83
2022/03/30 09:27:46;;;;;;;15.75;11.05;;;;;;;11.97;52.00;99153.06;2843311;81;21645;-83
2022/03/30 09:31:50;;;;;;;20.05;10.63;;;;;;;12.02;52.10;99146.81;2814513;82;21615;-83
2022/03/30 09:35:51;;;;;;;16.20;10.90;;;;;;;12.29;52.58;99148.84;2875576;79;21031;-82
2022/03/30 09:39:53;;;;;;;17.60;11.28;;;;;;;12.68;52.20;99156.19;2885182;79;21105;-83
2022/03/30 09:44:04;;;;;;;25.52;11.40;;;;;;;12.92;51.63;99142.48;2879904;80;20979;-82
2022/03/30 09:48:22;;;;;;;15.10;9.10;;;;;;;13.14;51.26;99136.09;2871197;80;21014;-83
2022/03/30 09:52:30;;;;;;;19.98;10.78;;;;;;;13.41;51.33;99126.84;2849589;80;21004;-83
2022/03/30 09:56:33;;;;;;;23.07;10.93;;;;;;;13.50;49.87;99116.98;2879661;79;21113;-83
2022/03/30 10:00:34;;;;;;;21.25;12.00;;;;;;;13.51;50.09;99115.98;2893638;80;21058;-83
2022/03/30 10:04:37;;;;;;;18.90;10.85;;;;;;;13.46;48.98;99111.66;2894055;79;21028;-83
2022/03/30 10:08:44;;;;;;;24.50;10.48;;;;;;;13.55;49.38;99106.60;2883723;79;21039;-82
2022/03/30 10:12:46;;;;;;;16.48;9.80;;;;;;;13.45;49.34;99096.64;2878878;80;21648;-83
2022/03/30 10:16:47;;;;;;;23.32;10.95;;;;;;;13.60;49.58;99086.56;2895164;79;21539;-83
2022/03/30 10:20:54;;;;;;;21.57;9.73;;;;;;;13.71;49.59;99084.81;2878247;80;21044;-83
2022/03/30 10:25:34;;;;;;;21.27;10.40;;;;;;;13.70;47.66;99079.99;2826551;82;20980;-83
2022/03/30 10:29:36;;;;;;;15.30;10.43;;;;;;;13.77;49.26;99079.28;2766243;83;21555;-83
2022/03/30 10:33:42;;;;;;;19.15;9.18;;;;;;;13.92;48.30;99080.68;2781201;83;21053;-83
2022/03/30 10:37:59;;;;;;;12.98;7.87;;;;;;;14.00;49.10;99076.63;2827303;82;21076;-83
2022/03/30 10:42:07;;;;;;;16.00;8.93;;;;;;;14.15;48.80;99067.33;2855635;81;21871;-83
2022/03/30 10:46:09;;;;;;;17.65;8.33;;;;;;;14.06;47.49;99065.73;2838895;82;20968;-84
2022/03/30 10:50:12;;;;;;;16.67;8.40;;;;;;;14.07;47.72;99066.88;2819789;82;20974;-82
2022/03/30 10:54:19;;;;;;;16.23;9.08;;;;;;;13.81;48.53;99057.38;2793591;82;20981;-83
2022/03/30 10:58:21;;;;;;;18.45;8.53;;;;;;;13.75;49.30;99059.92;2829376;82;21056;-83
2022/03/30 11:02:22;;;;;;;33.55;13.95;;;;;;;13.83;49.40;99051.84;2837893;82;21002;-83
2022/03/30 11:06:25;;;;;;;23.92;9.75;;;;;;;13.72;49.59;99049.07;2763901;83;21064;-82
2022/03/30 11:10:34;;;;;;;16.50;9.48;;;;;;;14.03;49.41;99041.52;2842184;82;21015;-83
2022/03/30 11:14:46;;;;;;;11.95;8.93;;;;;;;14.38;49.44;99041.05;2819660;82;21051;-81
2022/03/30 11:19:00;;;;;;;19.37;8.53;;;;;;;14.71;48.35;99029.55;2834366;82;21008;-83
2022/03/30 11:23:20;;;;;;;13.30;8.10;;;;;;;15.04;47.55;99020.83;2814378;82;20992;-83
2022/03/30 11:27:22;;;;;;;14.58;7.75;;;;;;;15.34;46.88;99024.82;2830935;82;21588;-83
2022/03/30 11:31:24;;;;;;;16.62;9.65;;;;;;;15.57;46.92;99020.63;2837589;82;21027;-83
2022/03/30 11:35:30;;;;;;;25.70;11.15;;;;;;;15.60;46.15;99006.03;2832171;82;20978;-80
2022/03/30 11:39:35;;;;;;;18.85;11.08;;;;;;;15.61;46.25;99005.01;2835260;82;21508;-81
2022/03/30 11:48:06;;;;;;;19.52;10.90;;;;;;;15.65;47.42;98996.91;2844713;81;21390;-82
2022/03/30 11:52:18;;;;;;;18.05;8.33;;;;;;;15.59;45.47;98995.80;2753608;83;21045;-81
2022/03/30 11:56:20;;;;;;;15.55;10.05;;;;;;;15.47;45.00;98987.44;2846948;82;21003;-80
2022/03/30 12:00:25;;;;;;;20.20;10.70;;;;;;;15.46;45.83;98980.95;2848153;81;21012;-81
2022/03/30 12:04:32;;;;;;;14.35;9.23;;;;;;;15.46;45.41;98976.93;2828844;82;21748;-81
2022/03/30 12:08:48;;;;;;;16.32;12.63;;;;;;;15.11;45.99;98966.83;2786928;82;21119;-81
2022/03/30 12:12:49;;;;;;;16.40;11.55;;;;;;;14.90;46.80;98959.06;2748558;85;21042;-81
2022/03/30 12:16:51;;;;;;;19.77;10.70;;;;;;;14.86;47.02;98956.45;2776236;83;21540;-81
2022/03/30 12:20:53;;;;;;;34.23;15.03;;;;;;;14.85;46.42;98948.94;2776366;83;21024;-81
2022/03/30 12:24:55;;;;;;;18.65;11.57;;;;;;;14.71;47.13;98945.23;2798758;82;20992;-81
2022/03/30 12:29:11;;;;;;;19.20;10.90;;;;;;;14.60;46.41;98935.48;2762785;83;21092;-81
2022/03/30 12:33:16;;;;;;;19.37;11.15;;;;;;;14.61;47.23;98933.13;2778914;83;21545;-81
2022/03/30 12:37:22;;;;;;;17.48;10.82;;;;;;;14.65;46.51;98925.08;2828972;82;21008;-78
2022/03/30 12:41:28;;;;;;;22.73;10.85;;;;;;;14.67;47.16;98923.04;2723291;85;21605;-81
2022/03/30 12:45:29;;;;;;;;;;;;;;;14.59;47.44;98925.30;2753036;83;21019;-81
2022/03/30 12:49:41;;;;;;;19.77;10.20;;;;;;;14.51;47.34;98926.72;2800523;82;20125;-81
2022/03/30 12:53:47;;;;;;;16.45;10.45;;;;;;;14.43;47.43;98928.48;2829238;82;20981;-81
2022/03/30 12:58:15;;;;;;;23.87;10.00;;;;;;;14.22;46.88;98919.83;2821598;82;20992;-81
2022/03/30 13:02:23;;;;;;;18.52;9.65;;;;;;;13.99;49.50;98914.05;2835011;82;21005;-81
2022/03/30 13:06:25;;;;;;;19.70;11.60;;;;;;;13.74;49.86;98907.27;2814885;82;21766;-81
2022/03/30 13:10:27;;;;;;;25.45;12.15;;;;;;;13.36;50.58;98910.69;2831127;82;21118;-80
2022/03/30 13:14:28;;;;;;;20.60;11.93;;;;;;;13.12;48.72;98905.84;2830451;82;21106;-80
2022/03/30 13:18:29;;;;;;;16.95;11.15;;;;;;;12.99;50.08;98908.60;2836529;82;21114;-79
2022/03/30 13:22:31;;;;;;;17.92;10.13;;;;;;;12.88;52.03;98899.64;2818885;82;21158;-80
2022/03/30 13:26:38;;;;;;;19.82;11.63;;;;;;;12.60;50.12;98893.45;2826237;82;21036;-81
2022/03/30 13:30:40;;;;;;;23.80;13.72;;;;;;;12.47;51.14;98886.49;2784380;83;21745;-81
2022/03/30 13:34:42;;;;;;;19.62;11.15;;;;;;;12.32;50.83;98879.20;2841914;81;21391;-82
2022/03/30 13:38:47;;;;;;;16.73;9.15;;;;;;;12.24;52.43;98873.91;2855131;80;21078;-84
2022/03/30 13:42:49;;;;;;;15.48;9.55;;;;;;;12.13;51.80;98868.44;2806105;82;21555;-83
2022/03/30 13:46:51;;;;;;;13.20;9.05;;;;;;;12.10;52.51;98860.27;2839887;82;21599;-83
2022/03/30 13:50:54;;;;;;;25.32;11.97;;;;;;;12.11;50.94;98861.12;2831472;82;21048;-81
2022/03/30 13:54:55;;;;;;;15.80;9.98;;;;;;;12.12;51.63;98856.12;2776394;83;21046;-83
2022/03/30 13:58:57;;;;;;;19.25;9.80;;;;;;;12.06;52.29;98861.62;2757595;84;21548;-84
2022/03/30 14:02:59;;;;;;;17.62;11.12;;;;;;;12.04;51.80;98860.97;2767935;84;21045;-82
2022/03/30 14:07:01;;;;;;;23.42;13.53;;;;;;;12.08;52.59;98861.44;2780079;83;21013;-82
2022/03/30 14:11:03;;;;;;;30.92;13.70;;;;;;;11.76;54.22;98859.16;2756379;83;21046;-83
2022/03/30 14:15:06;;;;;;;26.00;17.12;;;;;;;11.70;54.40;98856.66;2815720;82;21008;-83
2022/03/30 14:41:05;;;;;;;18.30;11.03;;;;;;;11.31;58.07;98850.20;2847785;81;21611;-82
2022/03/30 14:45:08;;;;;;;23.00;12.85;;;;;;;11.22;58.98;98842.70;2802460;82;21520;-82
2022/03/30 14:49:10;;;;;;;21.23;13.43;;;;;;;11.13;61.15;98848.52;2836892;82;21063;-82
2022/03/30 14:53:11;;;;;;;28.15;15.28;;;;;;;11.02;62.21;98852.81;2756388;83;21095;-82
2022/03/30 14:57:13;;;;;;;18.85;13.38;;;;;;;10.84;61.00;98838.33;2769850;83;21164;-81
2022/03/30 15:01:15;;;;;;;18.00;10.85;;;;;;;10.76;62.46;98837.81;2765452;83;21145;-80
2022/03/30 15:05:16;;;;;;;35.90;19.42;;;;;;;10.66;63.20;98837.11;2815795;82;21191;-81
2022/03/30 15:09:18;;;;;;;22.35;13.72;;;;;;;10.59;64.80;98840.09;2820222;82;21126;-82
2022/03/30 15:13:19;;;;;;;29.55;17.27;;;;;;;10.36;66.81;98844.12;2813935;82;21839;-81
2022/03/30 15:17:21;;;;;;;27.00;15.53;;;;;;;10.29;68.84;98841.77;2804630;82;21161;-82
2022/03/30 15:21:22;;;;;;;27.13;14.73;;;;;;;10.10;67.36;98839.69;2771869;82;21123;-81
2022/03/30 15:25:24;;;;;;;23.83;13.38;;;;;;;9.99;66.64;98842.13;2775635;82;21102;-82
2022/03/30 15:29:27;;;;;;;23.83;12.05;;;;;;;9.93;67.98;98835.28;2788246;82;21088;-81
2022/03/30 15:33:29;;;;;;;29.87;19.20;;;;;;;9.85;66.26;98833.41;2747544;83;21026;-82
2022/03/30 15:37:30;;;;;;;26.85;13.88;;;;;;;9.88;69.15;98838.91;2751954;84;21074;-82
2022/03/30 15:41:32;;;;;;;30.10;16.35;;;;;;;9.88;69.44;98835.74;2758080;84;21049;-81
2022/03/30 15:45:33;;;;;;;26.15;15.50;;;;;;;9.82;70.58;98834.54;2761433;84;20992;-81
2022/03/30 15:49:36;;;;;;;24.52;15.08;;;;;;;9.73;70.17;98832.84;2748764;84;21105;-82
2022/03/30 15:53:40;;;;;;;28.50;15.40;;;;;;;9.58;70.67;98830.74;2758189;84;21007;-81
2022/03/30 15:57:42;;;;;;;22.20;14.23;;;;;;;9.47;71.87;98831.01;2744519;84;21566;-80
2022/03/30 16:01:44;;;;;;;17.55;12.05;;;;;;;9.36;71.92;98832.57;2764749;84;21133;-80
2022/03/30 16:05:47;;;;;;;16.35;7.60;;;;;;;9.29;70.86;98842.95;2756850;82;21624;-81
2022/03/30 16:09:49;;;;;;;21.65;11.08;;;;;;;9.17;71.45;98848.99;2783381;83;21071;-81
2022/03/30 16:13:50;;;;;;;14.23;9.70;;;;;;;8.95;74.37;98861.73;2825151;82;21023;-82
2022/03/30 16:17:52;;;;;;;22.02;10.82;;;;;;;8.69;75.52;98869.09;2815206;82;21567;-81
2022/03/30 16:21:53;;;;;;;16.77;10.30;;;;;;;8.38;77.19;98864.55;2839428;82;21031;-82
2022/03/30 16:25:55;;;;;;;21.10;11.43;;;;;;;8.11;79.94;98856.91;2835869;82;21056;-82
2022/03/30 16:29:56;;;;;;;26.90;11.57;;;;;;;7.84;81.49;98858.02;2840938;80;21032;-83
2022/03/30 16:33:59;;;;;;;18.20;11.33;;;;;;;7.63;83.30;98864.00;2818135;82;21000;-87
2022/03/30 16:38:02;;;;;;;33.20;14.10;;;;;;;7.50;86.42;98855.88;2819616;82;21001;-88
2022/03/30 16:42:04;;;;;;;23.98;12.58;;;;;;;7.35;88.25;98867.87;2770672;83;21168;-87
2022/03/30 16:46:07;;;;;;;22.52;12.33;;;;;;;7.22;89.46;98860.22;2802227;83;21102;-87
2022/03/30 16:50:09;;;;;;;35.08;18.20;;;;;;;7.06;91.74;98856.78;2785068;83;21084;-88
2022/03/30 16:54:12;;;;;;;22.48;11.73;;;;;;;7.04;92.89;98860.05;2825538;82;21101;-89
2022/03/30 16:58:13;;;;;;;22.85;15.10;;;;;;;7.04;92.22;98860.05;2826406;82;21043;-87
2022/03/30 17:02:16;;;;;;;21.42;15.43;;;;;;;7.06;93.20;98866.89;2818329;82;21095;-85
2022/03/30 17:06:20;;;;;;;22.77;16.05;;;;;;;7.07;92.64;98868.55;2816689;82;21170;-86
2022/03/30 17:10:21;;;;;;;31.07;18.27;;;;;;;7.08;92.91;98866.77;2824090;82;21772;-85
2022/03/30 17:14:24;;;;;;;35.78;20.08;;;;;;;7.07;93.25;98872.52;2830020;82;20984;-84
2022/03/30 17:18:25;;;;;;;20.35;16.25;;;;;;;7.02;94.21;98872.58;2803399;82;21670;-83
2022/03/30 17:22:28;;;;;;;30.10;14.18;;;;;;;6.96;93.01;98881.42;2826587;82;21573;-83
2022/03/30 17:26:30;;;;;;;24.37;15.08;;;;;;;6.89;92.76;98874.17;2815604;82;21020;-82
2022/03/30 17:30:33;;;;;;;27.07;18.00;;;;;;;6.83;92.65;98877.72;2780901;83;21588;-83
2022/03/30 17:34:34;;;;;;;24.27;16.42;;;;;;;6.76;93.37;98873.11;2794015;82;21040;-83
2022/03/30 17:38:36;;;;;;;22.85;14.45;;;;;;;6.70;93.35;98879.30;2794850;82;21016;-83
2022/03/30 17:42:38;;;;;;;20.68;13.43;;;;;;;6.63;93.91;98882.11;2783123;83;20980;-84
2022/03/30 17:46:40;;;;;;;28.15;17.30;;;;;;;6.63;93.77;98879.97;2822041;82;21028;-83
2022/03/30 17:55:01;;;;;;;24.12;15.30;;;;;;;6.53;94.72;98887.87;2833148;82;21550;-84
2022/03/30 17:59:03;;;;;;;22.05;15.32;;;;;;;6.52;95.64;98892.80;2846004;82;21563;-83
2022/03/30 18:03:04;;;;;;;26.90;17.40;;;;;;;6.49;95.66;98893.07;2810902;82;21007;-84
2022/03/30 18:07:06;;;;;;;28.55;17.35;;;;;;;6.55;96.51;98899.12;2832248;82;21032;-84
2022/03/30 18:11:07;;;;;;;24.20;14.83;;;;;;;6.56;96.59;98893.70;2833275;82;21032;-84
2022/03/30 18:15:10;;;;;;;23.15;17.25;;;;;;;6.58;96.36;98896.22;2740668;84;21037;-84
2022/03/30 18:19:18;;;;;;;27.13;15.13;;;;;;;6.55;95.10;98897.81;2768994;83;21010;-83
2022/03/30 18:23:20;;;;;;;19.00;13.55;;;;;;;6.58;95.63;98904.14;2749900;84;21101;-84
2022/03/30 18:27:22;;;;;;;27.90;16.45;;;;;;;6.56;95.89;98904.27;2762816;82;21068;-85
2022/03/30 18:31:23;;;;;;;22.48;15.63;;;;;;;6.60;95.32;98907.48;2742197;83;21036;-85
2022/03/30 18:35:24;;;;;;;28.05;18.85;;;;;;;6.59;95.89;98908.45;2741174;83;21052;-85
2022/03/30 18:39:26;;;;;;;20.65;13.30;;;;;;;6.58;96.01;98910.75;2741212;84;21650;-85
2022/03/30 18:43:28;;;;;;;25.12;16.35;;;;;;;6.54;95.66;98911.99;2760953;83;21579;-85
2022/03/30 18:47:29;;;;;;;18.80;15.25;;;;;;;6.53;96.25;98913.78;2768989;82;21055;-86
2022/03/30 18:51:32;;;;;;;23.95;14.03;;;;;;;6.54;97.16;98912.81;2763746;83;21051;-86
2022/03/30 18:55:34;;;;;;;30.97;17.42;;;;;;;6.53;97.58;98919.56;2792850;82;21690;-87
2022/03/30 18:59:35;;;;;;;24.55;16.25;;;;;;;6.60;97.51;98920.70;2776842;82;21050;-88
2022/03/30 19:03:38;;;;;;;24.37;16.07;;;;;;;6.62;97.16;98921.39;2762135;83;21583;-87
2022/03/30 19:07:39;;;;;;;24.30;16.70;;;;;;;6.61;97.18;98925.01;2781694;82;21046;-87
2022/03/30 19:11:42;;;;;;;27.93;17.95;;;;;;;6.64;97.62;98923.41;2816830;82;21047;-85
2022/03/30 19:15:44;;;;;;;33.05;17.37;;;;;;;6.67;97.61;98923.64;2811015;82;21039;-86
2022/03/30 19:19:46;;;;;;;25.65;18.30;;;;;;;6.68;97.66;98923.52;2774693;82;21059;-86
2022/03/30 19:23:47;;;;;;;30.70;17.27;;;;;;;6.71;97.70;98927.69;2825807;80;21012;-87